sensor_id;sensor_type;location;lat;lon;timestamp;pressure;altitude;pressure_sealevel;temperature;humidity
22283;BME280;11310;51.528;21.204;2023-09-19T00:00:46;99403.31;;;17.20;100.00
22283;BME280;11310;51.528;21.204;2023-09-19T00:03:18;99399.00;;;17.19;100.00
22283;BME280;11310;51.528;21.204;2023-09-19T00:05:47;99394.66;;;17.18;100.00
22283;BME280;11310;51.528;21.204;2023-09-19T00:08:17;99392.13;;;17.17;100.00
22283;BME280;11310;51.528;21.204;2023-09-19T00:10:54;99395.63;;;17.17;100.00
22283;BME280;11310;51.528;21.204;2023-09-19T00:13:23;99400.22;;;17.15;100.00
22283;BME280;11310;51.528;21.204;2023-09-19T00:15:52;99401.88;;;17.16;100.00
22283;BME280;11310;51.528;21.204;2023-09-19T00:18:25;99393.13;;;17.16;100.00
22283;BME280;11310;51.528;21.204;2023-09-19T00:20:57;99395.75;;;17.16;100.00
22283;BME280;11310;51.528;21.204;2023-09-19T00:23:25;99393.81;;;17.18;100.00
22283;BME280;11310;51.528;21.204;2023-09-19T00:26:05;99391.28;;;17.16;100.00
22283;BME280;11310;51.528;21.204;2023-09-19T00:28:34;99393.94;;;17.16;100.00
22283;BME280;11310;51.528;21.204;2023-09-19T00:31:03;99393.25;;;17.14;100.00
22283;BME280;11310;51.528;21.204;2023-09-19T00:33:32;99387.09;;;17.14;100.00
22283;BME280;11310;51.528;21.204;2023-09-19T00:36:01;99386.38;;;17.12;100.00
22283;BME280;11310;51.528;21.204;2023-09-19T00:38:32;99386.25;;;17.13;100.00
22283;BME280;11310;51.528;21.204;2023-09-19T00:41:01;99375.91;;;17.10;100.00
22283;BME280;11310;51.528;21.204;2023-09-19T00:43:31;99377.56;;;17.11;100.00
22283;BME280;11310;51.528;21.204;2023-09-19T00:46:02;99369.75;;;17.10;100.00
22283;BME280;11310;51.528;21.204;2023-09-19T00:48:40;99366.28;;;17.09;100.00
22283;BME280;11310;51.528;21.204;2023-09-19T00:51:11;99363.63;;;17.09;100.00
22283;BME280;11310;51.528;21.204;2023-09-19T00:53:43;99362.78;;;17.09;100.00
22283;BME280;11310;51.528;21.204;2023-09-19T00:56:14;99361.09;;;17.08;100.00
22283;BME280;11310;51.528;21.204;2023-09-19T00:58:48;99356.66;;;17.08;100.00
22283;BME280;11310;51.528;21.204;2023-09-19T01:01:18;99356.66;;;17.08;100.00
22283;BME280;11310;51.528;21.204;2023-09-19T01:03:50;99353.03;;;17.09;100.00
22283;BME280;11310;51.528;21.204;2023-09-19T01:06:19;99342.41;;;17.09;100.00
22283;BME280;11310;51.528;21.204;2023-09-19T01:08:48;99348.53;;;17.10;100.00
22283;BME280;11310;51.528;21.204;2023-09-19T01:11:21;99354.69;;;17.10;100.00
22283;BME280;11310;51.528;21.204;2023-09-19T01:13:58;99338.91;;;17.09;100.00
22283;BME280;11310;51.528;21.204;2023-09-19T01:16:38;99343.63;;;17.05;100.00
22283;BME280;11310;51.528;21.204;2023-09-19T01:19:32;99344.63;;;17.04;100.00
22283;BME280;11310;51.528;21.204;2023-09-19T01:22:11;99333.28;;;17.02;100.00
22283;BME280;11310;51.528;21.204;2023-09-19T01:25:07;99326.31;;;17.01;100.00
22283;BME280;11310;51.528;21.204;2023-09-19T01:28:08;99320.03;;;17.02;100.00
22283;BME280;11310;51.528;21.204;2023-09-19T01:30:46;99317.13;;;17.05;100.00
22283;BME280;11310;51.528;21.204;2023-09-19T01:33:17;99305.69;;;17.05;100.00
22283;BME280;11310;51.528;21.204;2023-09-19T01:35:45;99313.06;;;17.01;100.00
22283;BME280;11310;51.528;21.204;2023-09-19T01:38:15;99315.00;;;16.99;100.00
22283;BME280;11310;51.528;21.204;2023-09-19T01:40:50;99308.28;;;16.95;100.00
22283;BME280;11310;51.528;21.204;2023-09-19T01:43:25;99315.25;;;16.96;100.00
22283;BME280;11310;51.528;21.204;2023-09-19T01:46:01;99300.31;;;16.95;100.00
22283;BME280;11310;51.528;21.204;2023-09-19T01:48:38;99299.34;;;16.96;100.00
22283;BME280;11310;51.528;21.204;2023-09-19T01:51:09;99304.41;;;16.99;100.00
22283;BME280;11310;51.528;21.204;2023-09-19T01:53:44;99298.81;;;17.02;100.00
22283;BME280;11310;51.528;21.204;2023-09-19T01:56:23;99303.16;;;17.03;100.00
22283;BME280;11310;51.528;21.204;2023-09-19T01:58:56;99305.44;;;17.08;100.00
22283;BME280;11310;51.528;21.204;2023-09-19T02:01:29;99293.72;;;17.10;100.00
22283;BME280;11310;51.528;21.204;2023-09-19T02:04:00;99301.44;;;17.13;100.00
22283;BME280;11310;51.528;21.204;2023-09-19T02:06:32;99302.13;;;17.15;100.00
22283;BME280;11310;51.528;21.204;2023-09-19T02:09:01;99305.25;;;17.20;100.00
22283;BME280;11310;51.528;21.204;2023-09-19T02:11:30;99302.34;;;17.23;100.00
22283;BME280;11310;51.528;21.204;2023-09-19T02:13:59;99296.91;;;17.25;100.00
22283;BME280;11310;51.528;21.204;2023-09-19T02:16:28;99295.81;;;17.27;100.00
22283;BME280;11310;51.528;21.204;2023-09-19T02:18:57;99283.25;;;17.29;100.00
22283;BME280;11310;51.528;21.204;2023-09-19T02:21:26;99283.44;;;17.37;100.00
22283;BME280;11310;51.528;21.204;2023-09-19T02:23:56;99286.81;;;17.39;100.00
22283;BME280;11310;51.528;21.204;2023-09-19T02:26:24;99292.84;;;17.41;100.00
22283;BME280;11310;51.528;21.204;2023-09-19T02:28:54;99282.94;;;17.43;100.00
22283;BME280;11310;51.528;21.204;2023-09-19T02:31:22;99283.38;;;17.48;100.00
22283;BME280;11310;51.528;21.204;2023-09-19T02:33:54;99274.44;;;17.49;100.00
22283;BME280;11310;51.528;21.204;2023-09-19T02:36:23;99274.19;;;17.52;100.00
22283;BME280;11310;51.528;21.204;2023-09-19T02:38:51;99265.13;;;17.55;100.00
22283;BME280;11310;51.528;21.204;2023-09-19T02:41:20;99267.91;;;17.53;100.00
22283;BME280;11310;51.528;21.204;2023-09-19T02:43:48;99270.31;;;17.56;100.00
22283;BME280;11310;51.528;21.204;2023-09-19T02:46:17;99274.63;;;17.57;100.00
22283;BME280;11310;51.528;21.204;2023-09-19T02:48:45;99266.69;;;17.57;100.00
22283;BME280;11310;51.528;21.204;2023-09-19T02:51:17;99260.56;;;17.57;100.00
22283;BME280;11310;51.528;21.204;2023-09-19T02:53:46;99251.50;;;17.59;100.00
22283;BME280;11310;51.528;21.204;2023-09-19T02:56:14;99255.56;;;17.63;100.00
22283;BME280;11310;51.528;21.204;2023-09-19T02:58:43;99252.63;;;17.66;100.00
22283;BME280;11310;51.528;21.204;2023-09-19T03:01:11;99255.16;;;17.68;100.00
22283;BME280;11310;51.528;21.204;2023-09-19T03:03:40;99249.72;;;17.69;100.00
22283;BME280;11310;51.528;21.204;2023-09-19T03:06:09;99256.69;;;17.70;100.00
22283;BME280;11310;51.528;21.204;2023-09-19T03:08:39;99255.72;;;17.71;100.00
22283;BME280;11310;51.528;21.204;2023-09-19T03:11:10;99261.59;;;17.75;100.00
22283;BME280;11310;51.528;21.204;2023-09-19T03:13:41;99261.31;;;17.78;100.00
22283;BME280;11310;51.528;21.204;2023-09-19T03:16:10;99255.03;;;17.79;100.00
22283;BME280;11310;51.528;21.204;2023-09-19T03:18:42;99259.22;;;17.81;100.00
22283;BME280;11310;51.528;21.204;2023-09-19T03:21:12;99256.31;;;17.84;100.00
22283;BME280;11310;51.528;21.204;2023-09-19T03:23:43;99266.69;;;17.87;100.00
22283;BME280;11310;51.528;21.204;2023-09-19T03:26:13;99250.47;;;17.90;100.00
22283;BME280;11310;51.528;21.204;2023-09-19T03:28:44;99251.31;;;17.91;100.00
22283;BME280;11310;51.528;21.204;2023-09-19T03:31:14;99238.59;;;17.94;100.00
22283;BME280;11310;51.528;21.204;2023-09-19T03:33:43;99232.19;;;17.97;100.00
22283;BME280;11310;51.528;21.204;2023-09-19T03:36:11;99233.72;;;17.99;100.00
22283;BME280;11310;51.528;21.204;2023-09-19T03:38:43;99238.22;;;17.99;100.00
22283;BME280;11310;51.528;21.204;2023-09-19T03:41:13;99227.03;;;17.95;100.00
22283;BME280;11310;51.528;21.204;2023-09-19T03:43:45;99231.25;;;17.98;100.00
22283;BME280;11310;51.528;21.204;2023-09-19T03:46:14;99225.94;;;17.98;100.00
22283;BME280;11310;51.528;21.204;2023-09-19T03:48:43;99223.09;;;17.99;100.00
22283;BME280;11310;51.528;21.204;2023-09-19T03:51:12;99222.84;;;18.02;100.00
22283;BME280;11310;51.528;21.204;2023-09-19T03:53:40;99225.94;;;18.07;100.00
22283;BME280;11310;51.528;21.204;2023-09-19T03:56:11;99225.09;;;18.07;100.00
22283;BME280;11310;51.528;21.204;2023-09-19T03:58:41;99210.13;;;18.06;100.00
22283;BME280;11310;51.528;21.204;2023-09-19T04:01:09;99215.59;;;18.04;100.00
22283;BME280;11310;51.528;21.204;2023-09-19T04:03:38;99219.94;;;18.05;100.00
22283;BME280;11310;51.528;21.204;2023-09-19T04:06:15;99216.28;;;18.06;100.00
22283;BME280;11310;51.528;21.204;2023-09-19T04:08:44;99213.63;;;18.06;100.00
22283;BME280;11310;51.528;21.204;2023-09-19T04:11:15;99208.34;;;18.06;100.00
22283;BME280;11310;51.528;21.204;2023-09-19T04:13:45;99206.66;;;18.05;100.00
22283;BME280;11310;51.528;21.204;2023-09-19T04:16:15;99205.69;;;18.06;100.00
22283;BME280;11310;51.528;21.204;2023-09-19T04:18:45;99198.56;;;18.07;100.00
22283;BME280;11310;51.528;21.204;2023-09-19T04:21:13;99196.72;;;18.07;100.00
22283;BME280;11310;51.528;21.204;2023-09-19T04:23:43;99201.06;;;18.08;100.00
22283;BME280;11310;51.528;21.204;2023-09-19T04:26:11;99195.75;;;18.08;100.00
22283;BME280;11310;51.528;21.204;2023-09-19T04:28:42;99195.06;;;18.06;100.00
22283;BME280;11310;51.528;21.204;2023-09-19T04:31:14;99203.03;;;18.06;100.00
22283;BME280;11310;51.528;21.204;2023-09-19T04:33:44;99192.66;;;18.03;100.00
22283;BME280;11310;51.528;21.204;2023-09-19T04:36:13;99189.06;;;18.04;100.00
22283;BME280;11310;51.528;21.204;2023-09-19T04:39:02;99191.84;;;18.03;100.00
22283;BME280;11310;51.528;21.204;2023-09-19T04:41:36;99192.13;;;18.00;100.00
22283;BME280;11310;51.528;21.204;2023-09-19T04:44:07;99180.63;;;17.99;100.00
22283;BME280;11310;51.528;21.204;2023-09-19T04:46:36;99187.78;;;17.99;100.00
22283;BME280;11310;51.528;21.204;2023-09-19T04:49:04;99181.38;;;18.01;100.00
22283;BME280;11310;51.528;21.204;2023-09-19T04:51:33;99181.38;;;18.01;100.00
22283;BME280;11310;51.528;21.204;2023-09-19T04:54:03;99182.34;;;18.00;100.00
22283;BME280;11310;51.528;21.204;2023-09-19T04:56:32;99175.78;;;18.04;100.00
22283;BME280;11310;51.528;21.204;2023-09-19T04:59:01;99181.09;;;18.04;100.00
22283;BME280;11310;51.528;21.204;2023-09-19T05:01:31;99178.44;;;18.04;100.00
22283;BME280;11310;51.528;21.204;2023-09-19T05:04:03;99174.50;;;18.08;100.00
22283;BME280;11310;51.528;21.204;2023-09-19T05:06:32;99169.78;;;18.12;100.00
22283;BME280;11310;51.528;21.204;2023-09-19T05:09:02;99179.84;;;18.18;100.00
22283;BME280;11310;51.528;21.204;2023-09-19T05:11:33;99176.75;;;18.22;100.00
22283;BME280;11310;51.528;21.204;2023-09-19T05:14:01;99163.22;;;18.25;100.00
22283;BME280;11310;51.528;21.204;2023-09-19T05:16:32;99167.94;;;18.31;100.00
22283;BME280;11310;51.528;21.204;2023-09-19T05:19:01;99177.09;;;18.38;100.00
22283;BME280;11310;51.528;21.204;2023-09-19T05:21:30;99167.88;;;18.42;100.00
22283;BME280;11310;51.528;21.204;2023-09-19T05:24:00;99169.81;;;18.50;100.00
22283;BME280;11310;51.528;21.204;2023-09-19T05:26:29;99172.34;;;18.51;100.00
22283;BME280;11310;51.528;21.204;2023-09-19T05:28:59;99168.41;;;18.55;100.00
22283;BME280;11310;51.528;21.204;2023-09-19T05:31:28;99164.78;;;18.56;100.00
22283;BME280;11310;51.528;21.204;2023-09-19T05:33:59;99169.09;;;18.57;100.00
22283;BME280;11310;51.528;21.204;2023-09-19T05:36:29;99174.28;;;18.59;100.00
22283;BME280;11310;51.528;21.204;2023-09-19T05:38:59;99175.13;;;18.59;100.00
22283;BME280;11310;51.528;21.204;2023-09-19T05:41:28;99177.78;;;18.59;100.00
22283;BME280;11310;51.528;21.204;2023-09-19T05:43:57;99171.50;;;18.60;100.00
22283;BME280;11310;51.528;21.204;2023-09-19T05:46:30;99175.94;;;18.60;100.00
22283;BME280;11310;51.528;21.204;2023-09-19T05:49:01;99171.19;;;18.63;100.00
22283;BME280;11310;51.528;21.204;2023-09-19T05:51:35;99167.72;;;18.63;100.00
22283;BME280;11310;51.528;21.204;2023-09-19T05:54:04;99172.88;;;18.64;100.00
22283;BME280;11310;51.528;21.204;2023-09-19T05:56:32;99163.78;;;18.67;100.00
22283;BME280;11310;51.528;21.204;2023-09-19T05:59:08;99168.13;;;18.68;100.00
22283;BME280;11310;51.528;21.204;2023-09-19T06:01:37;99171.47;;;18.70;100.00
22283;BME280;11310;51.528;21.204;2023-09-19T06:04:11;99168.94;;;18.78;100.00
22283;BME280;11310;51.528;21.204;2023-09-19T06:06:45;99164.88;;;18.83;100.00
22283;BME280;11310;51.528;21.204;2023-09-19T06:09:17;99160.81;;;18.89;100.00
22283;BME280;11310;51.528;21.204;2023-09-19T06:11:50;99161.06;;;18.95;100.00
22283;BME280;11310;51.528;21.204;2023-09-19T06:14:21;99165.81;;;19.01;100.00
22283;BME280;11310;51.528;21.204;2023-09-19T06:16:51;99171.41;;;19.08;100.00
22283;BME280;11310;51.528;21.204;2023-09-19T06:19:23;99168.00;;;19.15;100.00
22283;BME280;11310;51.528;21.204;2023-09-19T06:21:53;99181.72;;;19.20;100.00
22283;BME280;11310;51.528;21.204;2023-09-19T06:24:26;99180.31;;;19.26;100.00
22283;BME280;11310;51.528;21.204;2023-09-19T06:27:02;99181.41;;;19.33;100.00
22283;BME280;11310;51.528;21.204;2023-09-19T06:29:33;99185.84;;;19.42;100.00
22283;BME280;11310;51.528;21.204;2023-09-19T06:32:07;99185.13;;;19.49;100.00
22283;BME280;11310;51.528;21.204;2023-09-19T06:34:41;99191.53;;;19.56;100.00
22283;BME280;11310;51.528;21.204;2023-09-19T06:37:10;99184.94;;;19.60;100.00
22283;BME280;11310;51.528;21.204;2023-09-19T06:39:43;99184.19;;;19.68;100.00
22283;BME280;11310;51.528;21.204;2023-09-19T06:42:18;99193.38;;;19.73;100.00
22283;BME280;11310;51.528;21.204;2023-09-19T06:44:48;99196.91;;;19.74;100.00
22283;BME280;11310;51.528;21.204;2023-09-19T06:47:20;99200.28;;;19.76;100.00
22283;BME280;11310;51.528;21.204;2023-09-19T06:49:52;99201.94;;;19.77;100.00
22283;BME280;11310;51.528;21.204;2023-09-19T06:52:21;99210.47;;;19.80;100.00
22283;BME280;11310;51.528;21.204;2023-09-19T06:54:49;99198.97;;;19.80;100.00
22283;BME280;11310;51.528;21.204;2023-09-19T06:57:19;99199.13;;;19.78;100.00
22283;BME280;11310;51.528;21.204;2023-09-19T06:59:48;99197.16;;;19.80;100.00
22283;BME280;11310;51.528;21.204;2023-09-19T07:02:19;99190.69;;;19.83;100.00
22283;BME280;11310;51.528;21.204;2023-09-19T07:04:50;99200.19;;;19.85;100.00
22283;BME280;11310;51.528;21.204;2023-09-19T07:07:20;99204.38;;;19.88;100.00
22283;BME280;11310;51.528;21.204;2023-09-19T07:09:48;99198.25;;;19.87;100.00
22283;BME280;11310;51.528;21.204;2023-09-19T07:12:21;99192.59;;;19.90;100.00
22283;BME280;11310;51.528;21.204;2023-09-19T07:14:52;99181.44;;;19.87;100.00
22283;BME280;11310;51.528;21.204;2023-09-19T07:17:22;99193.00;;;19.95;100.00
22283;BME280;11310;51.528;21.204;2023-09-19T07:19:50;99202.34;;;19.99;100.00
22283;BME280;11310;51.528;21.204;2023-09-19T07:22:20;99197.75;;;20.01;100.00
22283;BME280;11310;51.528;21.204;2023-09-19T07:24:50;99209.06;;;20.03;100.00
22283;BME280;11310;51.528;21.204;2023-09-19T07:27:19;99217.19;;;20.02;100.00
22283;BME280;11310;51.528;21.204;2023-09-19T07:29:51;99199.59;;;19.91;100.00
22283;BME280;11310;51.528;21.204;2023-09-19T07:32:24;99225.78;;;19.96;100.00
22283;BME280;11310;51.528;21.204;2023-09-19T07:34:54;99229.59;;;19.93;100.00
22283;BME280;11310;51.528;21.204;2023-09-19T07:37:24;99229.72;;;19.92;100.00
22283;BME280;11310;51.528;21.204;2023-09-19T07:39:55;99226.53;;;19.88;100.00
22283;BME280;11310;51.528;21.204;2023-09-19T07:42:24;99233.81;;;19.86;100.00
22283;BME280;11310;51.528;21.204;2023-09-19T07:44:52;99245.47;;;19.85;100.00
22283;BME280;11310;51.528;21.204;2023-09-19T07:47:23;99247.44;;;19.83;100.00
22283;BME280;11310;51.528;21.204;2023-09-19T07:49:52;99248.41;;;19.82;100.00
22283;BME280;11310;51.528;21.204;2023-09-19T07:52:23;99248.41;;;19.82;100.00
22283;BME280;11310;51.528;21.204;2023-09-19T07:54:51;99244.47;;;19.86;100.00
22283;BME280;11310;51.528;21.204;2023-09-19T07:57:23;99248.50;;;19.90;100.00
22283;BME280;11310;51.528;21.204;2023-09-19T07:59:52;99249.91;;;19.94;100.00
22283;BME280;11310;51.528;21.204;2023-09-19T08:02:21;99252.84;;;19.91;100.00
22283;BME280;11310;51.528;21.204;2023-09-19T08:04:50;99262.06;;;19.97;100.00
22283;BME280;11310;51.528;21.204;2023-09-19T08:07:19;99250.28;;;19.99;100.00
22283;BME280;11310;51.528;21.204;2023-09-19T08:09:52;99254.63;;;20.00;100.00
22283;BME280;11310;51.528;21.204;2023-09-19T08:12:24;99247.19;;;20.04;100.00
22283;BME280;11310;51.528;21.204;2023-09-19T08:14:52;99249.69;;;20.05;100.00
22283;BME280;11310;51.528;21.204;2023-09-19T08:17:22;99248.72;;;20.06;100.00
22283;BME280;11310;51.528;21.204;2023-09-19T08:19:51;99251.38;;;20.06;100.00
22283;BME280;11310;51.528;21.204;2023-09-19T08:22:20;99241.88;;;20.04;100.00
22283;BME280;11310;51.528;21.204;2023-09-19T08:24:53;99249.88;;;20.04;100.00
22283;BME280;11310;51.528;21.204;2023-09-19T08:27:23;99248.72;;;20.06;100.00
22283;BME280;11310;51.528;21.204;2023-09-19T08:29:54;99252.09;;;20.08;100.00
22283;BME280;11310;51.528;21.204;2023-09-19T08:32:24;99250.13;;;20.10;100.00
22283;BME280;11310;51.528;21.204;2023-09-19T08:34:57;99249.81;;;20.13;100.00
22283;BME280;11310;51.528;21.204;2023-09-19T08:37:29;99259.34;;;20.16;100.00
22283;BME280;11310;51.528;21.204;2023-09-19T08:39:58;99255.00;;;20.15;100.00
22283;BME280;11310;51.528;21.204;2023-09-19T08:42:28;99255.28;;;20.12;100.00
22283;BME280;11310;51.528;21.204;2023-09-19T08:44:57;99258.94;;;20.11;100.00
22283;BME280;11310;51.528;21.204;2023-09-19T08:47:34;99255.72;;;20.07;100.00
22283;BME280;11310;51.528;21.204;2023-09-19T08:50:12;99260.78;;;20.10;100.00
22283;BME280;11310;51.528;21.204;2023-09-19T08:52:46;99253.94;;;20.08;100.00
22283;BME280;11310;51.528;21.204;2023-09-19T08:55:19;99256.44;;;20.09;100.00
22283;BME280;11310;51.528;21.204;2023-09-19T08:57:51;99266.94;;;20.11;100.00
22283;BME280;11310;51.528;21.204;2023-09-19T09:00:21;99270.31;;;20.13;100.00
22283;BME280;11310;51.528;21.204;2023-09-19T09:02:51;99267.31;;;20.16;100.00
22283;BME280;11310;51.528;21.204;2023-09-19T09:05:23;99264.66;;;20.16;100.00
22283;BME280;11310;51.528;21.204;2023-09-19T09:07:53;99267.19;;;20.17;100.00
22283;BME280;11310;51.528;21.204;2023-09-19T09:10:25;99263.53;;;20.18;100.00
22283;BME280;11310;51.528;21.204;2023-09-19T09:12:55;99265.38;;;20.18;100.00
22283;BME280;11310;51.528;21.204;2023-09-19T09:15:24;99269.84;;;20.17;100.00
22283;BME280;11310;51.528;21.204;2023-09-19T09:17:52;99270.69;;;20.18;100.00
22283;BME280;11310;51.528;21.204;2023-09-19T09:20:22;99270.56;;;20.19;100.00
22283;BME280;11310;51.528;21.204;2023-09-19T09:22:51;99271.22;;;20.21;100.00
22283;BME280;11310;51.528;21.204;2023-09-19T09:25:23;99271.22;;;20.21;100.00
22283;BME280;11310;51.528;21.204;2023-09-19T09:28:19;99275.88;;;20.19;100.00
22283;BME280;11310;51.528;21.204;2023-09-19T09:30:50;99278.53;;;20.19;100.00
22283;BME280;11310;51.528;21.204;2023-09-19T09:33:22;99290.16;;;20.18;100.00
22283;BME280;11310;51.528;21.204;2023-09-19T09:35:52;99281.50;;;20.16;100.00
22283;BME280;11310;51.528;21.204;2023-09-19T09:39:56;99291.16;;;20.17;100.00
22283;BME280;11310;51.528;21.204;2023-09-19T09:42:30;99289.50;;;20.16;100.00
22283;BME280;11310;51.528;21.204;2023-09-19T09:45:17;99293.81;;;20.17;100.00
22283;BME280;11310;51.528;21.204;2023-09-19T09:47:59;99290.34;;;20.17;100.00
22283;BME280;11310;51.528;21.204;2023-09-19T09:50:31;99301.81;;;20.17;100.00
22283;BME280;11310;51.528;21.204;2023-09-19T09:53:25;99312.03;;;20.22;100.00
22283;BME280;11310;51.528;21.204;2023-09-19T09:56:01;99308.06;;;20.26;100.00
22283;BME280;11310;51.528;21.204;2023-09-19T09:58:36;99316.31;;;20.32;100.00
22283;BME280;11310;51.528;21.204;2023-09-19T10:01:08;99300.88;;;20.36;100.00
22283;BME280;11310;51.528;21.204;2023-09-19T10:03:45;99310.41;;;20.38;100.00
22283;BME280;11310;51.528;21.204;2023-09-19T10:06:17;99307.59;;;20.40;100.00
22283;BME280;11310;51.528;21.204;2023-09-19T10:08:59;99309.41;;;20.39;100.00
22283;BME280;11310;51.528;21.204;2023-09-19T10:11:43;99312.47;;;20.44;100.00
22283;BME280;11310;51.528;21.204;2023-09-19T10:14:15;99298.84;;;20.47;100.00
22283;BME280;11310;51.528;21.204;2023-09-19T10:16:48;99308.88;;;20.53;100.00
22283;BME280;11310;51.528;21.204;2023-09-19T10:19:23;99307.59;;;20.57;100.00
22283;BME280;11310;51.528;21.204;2023-09-19T10:21:55;99310.94;;;20.59;100.00
22283;BME280;11310;51.528;21.204;2023-09-19T10:24:26;99312.31;;;20.63;100.00
22283;BME280;11310;51.528;21.204;2023-09-19T10:27:02;99313.31;;;20.62;100.00
22283;BME280;11310;51.528;21.204;2023-09-19T10:29:32;99316.28;;;20.59;100.00
22283;BME280;11310;51.528;21.204;2023-09-19T10:32:05;99321.06;;;20.56;100.00
22283;BME280;11310;51.528;21.204;2023-09-19T10:34:36;99318.16;;;20.49;100.00
22283;BME280;11310;51.528;21.204;2023-09-19T10:37:09;99319.31;;;20.47;100.00
22283;BME280;11310;51.528;21.204;2023-09-19T10:39:46;99324.09;;;20.43;100.00
22283;BME280;11310;51.528;21.204;2023-09-19T10:42:19;99331.72;;;20.38;100.00
22283;BME280;11310;51.528;21.204;2023-09-19T10:44:52;99329.19;;;20.37;100.00
22283;BME280;11310;51.528;21.204;2023-09-19T10:47:21;99327.66;;;20.34;100.00
22283;BME280;11310;51.528;21.204;2023-09-19T10:49:52;99333.41;;;20.30;100.00
22283;BME280;11310;51.528;21.204;2023-09-19T10:52:24;99333.75;;;20.27;100.00
22283;BME280;11310;51.528;21.204;2023-09-19T10:54:55;99334.47;;;20.19;100.00
22283;BME280;11310;51.528;21.204;2023-09-19T10:57:29;99335.19;;;20.12;100.00
22283;BME280;11310;51.528;21.204;2023-09-19T11:00:07;99332.97;;;20.07;100.00
22283;BME280;11310;51.528;21.204;2023-09-19T11:03:16;99337.16;;;20.00;100.00
22283;BME280;11310;51.528;21.204;2023-09-19T11:06:01;99332.97;;;19.98;100.00
22283;BME280;11310;51.528;21.204;2023-09-19T11:09:03;99336.78;;;19.95;100.00
22283;BME280;11310;51.528;21.204;2023-09-19T11:11:49;99337.38;;;19.89;100.00
22283;BME280;11310;51.528;21.204;2023-09-19T11:14:42;99343.28;;;19.83;100.00
22283;BME280;11310;51.528;21.204;2023-09-19T11:17:42;99348.22;;;19.78;100.00
22283;BME280;11310;51.528;21.204;2023-09-19T11:20:23;99349.75;;;19.71;100.00
22283;BME280;11310;51.528;21.204;2023-09-19T11:23:17;99350.03;;;19.68;100.00
22283;BME280;11310;51.528;21.204;2023-09-19T11:25:46;99353.00;;;19.65;100.00
22283;BME280;11310;51.528;21.204;2023-09-19T11:28:32;99343.34;;;19.64;100.00
22283;BME280;11310;51.528;21.204;2023-09-19T11:34:42;99352.28;;;19.63;100.00
22283;BME280;11310;51.528;21.204;2023-09-19T11:40:37;99348.94;;;19.61;100.00
22283;BME280;11310;51.528;21.204;2023-09-19T11:43:29;99360.28;;;19.63;100.00
22283;BME280;11310;51.528;21.204;2023-09-19T11:46:08;99355.25;;;19.60;100.00
22283;BME280;11310;51.528;21.204;2023-09-19T11:48:39;99350.47;;;19.54;100.00
22283;BME280;11310;51.528;21.204;2023-09-19T11:51:19;99358.63;;;19.53;100.00
22283;BME280;11310;51.528;21.204;2023-09-19T11:53:50;99355.41;;;19.49;100.00
22283;BME280;11310;51.528;21.204;2023-09-19T11:56:21;99350.06;;;19.49;100.00
22283;BME280;11310;51.528;21.204;2023-09-19T11:58:52;99359.19;;;19.47;100.00
22283;BME280;11310;51.528;21.204;2023-09-19T12:01:28;99361.31;;;19.43;100.00
22283;BME280;11310;51.528;21.204;2023-09-19T12:04:00;99374.75;;;19.42;100.00
22283;BME280;11310;51.528;21.204;2023-09-19T12:06:35;99379.22;;;19.41;100.00
22283;BME280;11310;51.528;21.204;2023-09-19T12:09:06;99380.50;;;19.37;100.00
22283;BME280;11310;51.528;21.204;2023-09-19T12:11:42;99372.94;;;19.33;100.00
22283;BME280;11310;51.528;21.204;2023-09-19T12:14:12;99389.75;;;19.33;100.00
22283;BME280;11310;51.528;21.204;2023-09-19T12:16:53;99389.75;;;19.33;100.00
22283;BME280;11310;51.528;21.204;2023-09-19T12:19:23;99395.06;;;19.33;100.00
22283;BME280;11310;51.528;21.204;2023-09-19T12:21:56;99399.66;;;19.31;100.00
22283;BME280;11310;51.528;21.204;2023-09-19T12:24:27;99393.38;;;19.32;100.00
22283;BME280;11310;51.528;21.204;2023-09-19T12:27:02;99398.13;;;19.38;100.00
22283;BME280;11310;51.528;21.204;2023-09-19T12:29:43;99398.41;;;19.45;100.00
22283;BME280;11310;51.528;21.204;2023-09-19T12:32:12;99401.63;;;19.48;100.00
22283;BME280;11310;51.528;21.204;2023-09-19T12:34:51;99401.50;;;19.50;100.00
22283;BME280;11310;51.528;21.204;2023-09-19T12:37:26;99406.25;;;19.46;100.00
22283;BME280;11310;51.528;21.204;2023-09-19T12:40:06;99407.66;;;19.41;100.00
22283;BME280;11310;51.528;21.204;2023-09-19T12:42:45;99406.81;;;19.40;100.00
22283;BME280;11310;51.528;21.204;2023-09-19T12:45:15;99411.84;;;19.43;100.00
22283;BME280;11310;51.528;21.204;2023-09-19T12:48:19;99407.38;;;19.44;100.00
22283;BME280;11310;51.528;21.204;2023-09-19T12:51:02;99406.53;;;19.43;100.00
22283;BME280;11310;51.528;21.204;2023-09-19T12:53:37;99408.19;;;19.44;100.00
22283;BME280;11310;51.528;21.204;2023-09-19T12:56:09;99411.72;;;19.45;100.00
22283;BME280;11310;51.528;21.204;2023-09-19T12:58:48;99412.69;;;19.44;100.00
22283;BME280;11310;51.528;21.204;2023-09-19T13:01:17;99408.47;;;19.41;100.00
22283;BME280;11310;51.528;21.204;2023-09-19T13:04:10;99416.19;;;19.44;100.00
22283;BME280;11310;51.528;21.204;2023-09-19T13:06:40;99408.34;;;19.43;100.00
22283;BME280;11310;51.528;21.204;2023-09-19T13:09:12;99410.19;;;19.42;100.00
22283;BME280;11310;51.528;21.204;2023-09-19T13:11:42;99413.66;;;19.43;100.00
22283;BME280;11310;51.528;21.204;2023-09-19T13:14:21;99410.88;;;19.44;100.00
22283;BME280;11310;51.528;21.204;2023-09-19T13:16:59;99418.84;;;19.44;100.00